createdAt,value
2022-12-03T00:00:00.000Z,3.98
2022-12-03T00:15:00.000Z,3.73
2022-12-03T00:30:00.000Z,3.55
2022-12-03T00:45:00.000Z,3.45
2022-12-03T01:00:00.000Z,3.27
2022-12-03T01:15:00.000Z,3.37
2022-12-03T01:30:00.000Z,3.27
2022-12-03T01:45:00.000Z,3.07
2022-12-03T02:00:00.000Z,3.19
2022-12-03T02:15:00.000Z,3.1
2022-12-03T02:30:00.000Z,3.13
2022-12-03T02:45:00.000Z,3.2
2022-12-03T03:00:00.000Z,3.19
2022-12-03T03:15:00.000Z,3.06
2022-12-03T03:30:00.000Z,2.99
2022-12-03T03:45:00.000Z,2.76
2022-12-03T04:00:00.000Z,2.6
2022-12-03T04:15:00.000Z,2.6
2022-12-03T04:30:00.000Z,2.72
2022-12-03T04:45:00.000Z,2.67
2022-12-03T05:00:00.000Z,2.44
2022-12-03T05:15:00.000Z,2.25
2022-12-03T05:30:00.000Z,2.2
2022-12-03T05:45:00.000Z,2.59
2022-12-03T06:00:00.000Z,2.76
2022-12-03T06:15:00.000Z,3.01
2022-12-03T06:30:00.000Z,2.89
2022-12-03T06:45:00.000Z,2.91
2022-12-03T07:00:00.000Z,3.07
2022-12-03T07:15:00.000Z,3.06
2022-12-03T07:30:00.000Z,3.09
2022-12-03T07:45:00.000Z,3.43
2022-12-03T08:00:00.000Z,3.49
2022-12-03T08:15:00.000Z,3.92
2022-12-03T08:30:00.000Z,3.69
2022-12-03T08:45:00.000Z,3.77
2022-12-03T09:00:00.000Z,3.66
2022-12-03T09:15:00.000Z,3.99
2022-12-03T09:30:00.000Z,4.27
2022-12-03T09:45:00.000Z,4.65
2022-12-03T10:00:00.000Z,4.67
2022-12-03T10:15:00.000Z,4.63
2022-12-03T10:30:00.000Z,4.88
2022-12-03T10:45:00.000Z,5.14
2022-12-03T11:00:00.000Z,4.9
2022-12-03T11:15:00.000Z,5.36
2022-12-03T11:30:00.000Z,5.22
2022-12-03T11:45:00.000Z,5.09
2022-12-03T12:00:00.000Z,5.13
2022-12-03T12:15:00.000Z,5.6
2022-12-03T12:30:00.000Z,5.61
2022-12-03T12:45:00.000Z,5.6
2022-12-03T13:00:00.000Z,4.88
2022-12-03T13:15:00.000Z,4.64
2022-12-03T13:30:00.000Z,4.54
2022-12-03T13:45:00.000Z,4.38
2022-12-03T14:00:00.000Z,4.32
2022-12-03T14:15:00.000Z,4.45
2022-12-03T14:30:00.000Z,4.4
2022-12-03T14:45:00.000Z,4.25
2022-12-03T15:00:00.000Z,4.02
2022-12-03T15:15:00.000Z,3.93
2022-12-03T15:30:00.000Z,3.92
2022-12-03T15:45:00.000Z,4.05
2022-12-03T16:00:00.000Z,4.11
2022-12-03T16:15:00.000Z,4
2022-12-03T16:30:00.000Z,4.08
2022-12-03T16:45:00.000Z,4.01
2022-12-03T17:00:00.000Z,4.18
2022-12-03T17:15:00.000Z,4.37
2022-12-03T17:30:00.000Z,4.12
2022-12-03T17:45:00.000Z,3.92
2022-12-03T18:00:00.000Z,3.97
2022-12-03T18:15:00.000Z,3.95
2022-12-03T18:30:00.000Z,3.98
2022-12-03T18:45:00.000Z,3.91
2022-12-03T19:00:00.000Z,3.8
2022-12-03T19:15:00.000Z,3.83
2022-12-03T19:30:00.000Z,3.87
2022-12-03T19:45:00.000Z,3.88
2022-12-03T20:00:00.000Z,3.77
2022-12-03T20:15:00.000Z,3.68
2022-12-03T20:30:00.000Z,3.66
2022-12-03T20:45:00.000Z,3.74
2022-12-03T21:00:00.000Z,3.83
2022-12-03T21:15:00.000Z,3.95
2022-12-03T21:30:00.000Z,3.6
2022-12-03T21:45:00.000Z,3.48
2022-12-03T22:00:00.000Z,3.63
2022-12-03T22:15:00.000Z,3.42
2022-12-03T22:30:00.000Z,3.4
2022-12-03T22:45:00.000Z,3.35
2022-12-03T23:00:00.000Z,3.46
2022-12-03T23:15:00.000Z,3.5
2022-12-03T23:30:00.000Z,3.49
2022-12-03T23:45:00.000Z,3.46
